Nyk Constellation — V7NP4 — position and weather

sailwx.info

Track history (hours):
 
Tides and Currents Weather Stations Pressure Air Temp Water Temp Dewpoint Dewpoint Depression Visibility Wind Speed Wind Dir Waves Ship Positions

Nyk Constellation

Last reported at 2016-Feb-04 10:32 UTC. Time now 2016-Feb-07 01:21 UTC.
Position N 35°21' E 140°54'.

Length 294 m; draft 11.8 m.

Type: Cargo ship. MMSI: 538002992.

Date/timePositionNaut miles runAvg speedWind from/ knotsBaromVisibWave heightAir tempDewpointWater temp
2016-Feb-04 10:32N 35°21' E 140°54'1717.9
2016-Feb-04 09:34N 35°10' E 140°37'1817.8
2016-Feb-04 08:33N 34°59' E 140°20'1717.3
2016-Feb-04 07:33N 34°50' E 140°02'1917.3
2016-Feb-04 06:29N 34°51' E 139°39'8 8.2
2016-Feb-04 05:32N 34°58' E 139°39'1515.1
2016-Feb-04 04:33N 35°12' E 139°46'1212.1
2016-Feb-04 03:33N 35°24' E 139°43'1211.7
2016-Feb-04 02:33N 35°35' E 139°48'2 1.8
2016-Feb-04 01:31N 35°36' E 139°46'0 0.0
2016-Feb-04 00:31N 35°36' E 139°46'0 0.0
2016-Feb-03 23:31N 35°36' E 139°46'0 0.0
2016-Feb-03 22:31N 35°36' E 139°46'0 0.0
2016-Feb-03 21:31N 35°36' E 139°46'0 0.0
2016-Feb-03 20:31N 35°36' E 139°46'0 0.0
2016-Feb-03 19:31N 35°36' E 139°46'0 0.0
2016-Feb-03 18:31N 35°36' E 139°46'0 0.0
2016-Feb-03 17:31N 35°36' E 139°46'0 0.0
2016-Feb-03 16:31N 35°36' E 139°46'0 0.0
2016-Feb-03 15:31N 35°36' E 139°46'0 0.1
2016-Feb-03 14:33N 35°36' E 139°46'7 7.5
2016-Feb-03 13:33N 35°30' E 139°52'1413.5
2016-Feb-03 12:33N 35°18' E 139°45'1111.2
2016-Feb-03 11:33N 35°07' E 139°47'9 9.0
2016-Feb-03 10:32N 35°00' E 139°40'10 9.3
2016-Feb-03 09:25N 34°55' E 139°29'231 6.4
2016-Feb-01 21:34N 33°59' E 134°57'1514.8
2016-Feb-01 20:34N 34°13' E 134°58'1514.5
2016-Feb-01 19:33N 34°27' E 135°06'1615.9
2016-Feb-01 18:34N 34°38' E 135°18'3 2.9
2016-Feb-01 17:32N 34°41' E 135°17'0 0.0
2016-Feb-01 16:32N 34°41' E 135°17'0 0.0
2016-Feb-01 15:32N 34°41' E 135°17'0 0.0
2016-Feb-01 14:32N 34°41' E 135°17'0 0.0
2016-Feb-01 13:32N 34°41' E 135°17'0 0.0
2016-Feb-01 12:32N 34°41' E 135°17'0 0.0
2016-Feb-01 11:32N 34°41' E 135°17'0 0.0
2016-Feb-01 10:32N 34°41' E 135°17'0 0.0
2016-Feb-01 09:32N 34°41' E 135°17'2 2.2
2016-Feb-01 08:33N 34°39' E 135°19'1313.0
2016-Feb-01 07:33N 34°28' E 135°11'1716.9
2016-Feb-01 06:34N 34°14' E 134°59'1211.7
2016-Feb-01 05:33N 34°03' E 134°58'  
2016-Jan-28 19:11N 30°39' E 122°59'1117.0
2016-Jan-28 18:33N 30°37' E 122°47'1715.7
2016-Jan-28 17:29N 30°31' E 122°29'1212.6
2016-Jan-28 16:31N 30°33' E 122°15'9 9.3
2016-Jan-28 15:31N 30°36' E 122°05'0 0.0
2016-Jan-27 02:13N 30°36' E 122°05'1 0.7
2016-Jan-27 01:31N 30°36' E 122°04'8 7.9
2016-Jan-27 00:32N 30°34' E 122°13'1110.6
2016-Jan-26 23:33N 30°32' E 122°25'11 0.8
2016-Jan-26 09:15N 30°21' E 122°28'  
Track history (hours):
 
Tides and Currents Weather Stations Pressure Air Temp Water Temp Dewpoint Dewpoint Depression Visibility Wind Speed Wind Dir Waves Ship Positions

Nyk Constellation

Last reported at 2016-Feb-04 10:32 UTC. Time now 2016-Feb-07 01:21 UTC.
Position N 35°21' E 140°54'.

Length 294 m; draft 11.8 m.

Type: Cargo ship. MMSI: 538002992.

Date/timePositionNaut miles runAvg speedWind from/ knotsBaromVisibWave heightAir tempDewpointWater temp
2016-Feb-04 10:32N 35°21' E 140°54'1717.9
2016-Feb-04 09:34N 35°10' E 140°37'1817.8
2016-Feb-04 08:33N 34°59' E 140°20'1717.3
2016-Feb-04 07:33N 34°50' E 140°02'1917.3
2016-Feb-04 06:29N 34°51' E 139°39'8 8.2
2016-Feb-04 05:32N 34°58' E 139°39'1515.1
2016-Feb-04 04:33N 35°12' E 139°46'1212.1
2016-Feb-04 03:33N 35°24' E 139°43'1211.7
2016-Feb-04 02:33N 35°35' E 139°48'2 1.8
2016-Feb-04 01:31N 35°36' E 139°46'0 0.0
2016-Feb-04 00:31N 35°36' E 139°46'0 0.0
2016-Feb-03 23:31N 35°36' E 139°46'0 0.0
2016-Feb-03 22:31N 35°36' E 139°46'0 0.0
2016-Feb-03 21:31N 35°36' E 139°46'0 0.0
2016-Feb-03 20:31N 35°36' E 139°46'0 0.0
2016-Feb-03 19:31N 35°36' E 139°46'0 0.0
2016-Feb-03 18:31N 35°36' E 139°46'0 0.0
2016-Feb-03 17:31N 35°36' E 139°46'0 0.0
2016-Feb-03 16:31N 35°36' E 139°46'0 0.0
2016-Feb-03 15:31N 35°36' E 139°46'0 0.1
2016-Feb-03 14:33N 35°36' E 139°46'7 7.5
2016-Feb-03 13:33N 35°30' E 139°52'1413.5
2016-Feb-03 12:33N 35°18' E 139°45'1111.2
2016-Feb-03 11:33N 35°07' E 139°47'9 9.0
2016-Feb-03 10:32N 35°00' E 139°40'10 9.3
2016-Feb-03 09:25N 34°55' E 139°29'231 6.4
2016-Feb-01 21:34N 33°59' E 134°57'1514.8
2016-Feb-01 20:34N 34°13' E 134°58'1514.5
2016-Feb-01 19:33N 34°27' E 135°06'1615.9
2016-Feb-01 18:34N 34°38' E 135°18'3 2.9
2016-Feb-01 17:32N 34°41' E 135°17'0 0.0
2016-Feb-01 16:32N 34°41' E 135°17'0 0.0
2016-Feb-01 15:32N 34°41' E 135°17'0 0.0
2016-Feb-01 14:32N 34°41' E 135°17'0 0.0
2016-Feb-01 13:32N 34°41' E 135°17'0 0.0
2016-Feb-01 12:32N 34°41' E 135°17'0 0.0
2016-Feb-01 11:32N 34°41' E 135°17'0 0.0
2016-Feb-01 10:32N 34°41' E 135°17'0 0.0
2016-Feb-01 09:32N 34°41' E 135°17'2 2.2
2016-Feb-01 08:33N 34°39' E 135°19'1313.0
2016-Feb-01 07:33N 34°28' E 135°11'1716.9
2016-Feb-01 06:34N 34°14' E 134°59'1211.7
2016-Feb-01 05:33N 34°03' E 134°58'  
2016-Jan-28 19:11N 30°39' E 122°59'1117.0
2016-Jan-28 18:33N 30°37' E 122°47'1715.7
2016-Jan-28 17:29N 30°31' E 122°29'1212.6
2016-Jan-28 16:31N 30°33' E 122°15'9 9.3
2016-Jan-28 15:31N 30°36' E 122°05'0 0.0
2016-Jan-27 02:13N 30°36' E 122°05'1 0.7
2016-Jan-27 01:31N 30°36' E 122°04'8 7.9
2016-Jan-27 00:32N 30°34' E 122°13'1110.6
2016-Jan-26 23:33N 30°32' E 122°25'11 0.8
2016-Jan-26 09:15N 30°21' E 122°28'  

Dump ship's entire track history